createdAt,value
2022-10-17T00:00:09.081Z,101443.21
2022-10-17T00:01:12.880Z,101443.22
2022-10-17T00:02:16.960Z,101441.50
2022-10-17T00:03:20.084Z,101444.05
2022-10-17T00:04:22.307Z,101448.38
2022-10-17T00:05:25.004Z,101448.41
2022-10-17T00:06:28.442Z,101440.66
2022-10-17T00:07:32.055Z,101451.84
2022-10-17T00:08:35.077Z,101442.34
2022-10-17T00:09:37.936Z,101439.74
2022-10-17T00:10:40.863Z,101444.91
2022-10-17T00:11:42.573Z,101450.09
2022-10-17T00:12:44.976Z,101450.06
2022-10-17T00:13:52.374Z,101449.19
2022-10-17T00:14:54.657Z,101451.77
2022-10-17T00:15:56.633Z,101453.50
2022-10-17T00:16:58.456Z,101453.50
2022-10-17T00:18:00.592Z,101451.80
2022-10-17T00:19:04.213Z,101456.98
2022-10-17T00:20:07.715Z,101448.38
2022-10-17T00:21:17.551Z,101450.95
2022-10-17T00:22:19.391Z,101454.40
2022-10-17T00:23:21.651Z,101453.52
2022-10-17T00:24:23.838Z,101452.66
2022-10-17T00:25:25.914Z,101462.98
2022-10-17T00:26:29.046Z,101458.72
2022-10-17T00:27:32.678Z,101452.70
2022-10-17T00:28:36.999Z,101454.44
2022-10-17T00:29:38.993Z,101457.05
2022-10-17T00:30:41.121Z,101460.48
2022-10-17T00:31:42.944Z,101455.33
2022-10-17T00:32:45.494Z,101460.48
2022-10-17T00:33:49.454Z,101457.03
2022-10-17T00:34:51.536Z,101457.05
2022-10-17T00:36:07.071Z,101460.47
2022-10-17T00:37:10.528Z,101468.20
2022-10-17T00:38:12.742Z,101459.59
2022-10-17T00:39:15.164Z,101464.77
2022-10-17T00:40:19.133Z,101460.43
2022-10-17T00:41:25.619Z,101460.34
2022-10-17T00:42:28.062Z,101465.53
2022-10-17T00:43:51.146Z,101455.23
2022-10-17T00:45:06.023Z,101455.23
2022-10-17T00:46:08.341Z,101456.06
2022-10-17T00:47:13.711Z,101462.09
2022-10-17T00:48:18.886Z,101461.25
2022-10-17T00:49:22.847Z,101460.39
2022-10-17T00:50:25.382Z,101456.95
2022-10-17T00:51:39.886Z,101456.09
2022-10-17T00:52:43.158Z,101458.66
2022-10-17T00:53:45.299Z,101463.84
2022-10-17T00:54:53.824Z,101456.95
2022-10-17T00:55:55.861Z,101453.55
2022-10-17T00:56:58.653Z,101458.73
2022-10-17T00:58:05.031Z,101454.41
2022-10-17T00:59:10.281Z,101452.72
2022-10-17T01:00:14.478Z,101452.72
2022-10-17T01:01:16.619Z,101453.52
2022-10-17T01:02:20.663Z,101453.55
2022-10-17T01:03:22.981Z,101453.52
2022-10-17T01:04:26.058Z,101446.59
2022-10-17T01:05:28.733Z,101451.78
2022-10-17T01:06:30.631Z,101453.45
2022-10-17T01:07:37.129Z,101453.45
2022-10-17T01:08:39.260Z,101452.61
2022-10-17T01:09:44.716Z,101453.45
2022-10-17T01:11:08.957Z,101446.59
2022-10-17T01:12:27.094Z,101453.41
2022-10-17T01:13:48.262Z,101452.59
2022-10-17T01:14:59.867Z,101451.67
2022-10-17T01:16:38.649Z,101454.31
2022-10-17T01:17:56.478Z,101454.34
2022-10-17T01:19:04.531Z,101452.62
2022-10-17T01:20:37.771Z,101453.48
2022-10-17T01:21:49.071Z,101452.63
2022-10-17T01:23:00.129Z,101456.04
2022-10-17T01:24:36.621Z,101456.87
2022-10-17T01:26:11.420Z,101447.39
2022-10-17T01:27:43.294Z,101437.98
2022-10-17T01:29:02.385Z,101434.52
2022-10-17T01:30:39.856Z,101435.38
2022-10-17T01:32:00.821Z,101434.52
2022-10-17T01:33:06.887Z,101441.34
2022-10-17T01:34:31.892Z,101439.63
2022-10-17T01:35:49.839Z,101449.89
2022-10-17T01:37:13.187Z,101446.44
2022-10-17T01:38:35.859Z,101447.31
2022-10-17T01:39:50.663Z,101447.31
2022-10-17T01:41:00.595Z,101441.31
2022-10-17T01:43:50.883Z,101442.19
2022-10-17T01:44:56.406Z,101442.12
2022-10-17T01:46:04.622Z,101437.84
2022-10-17T01:47:10.157Z,101441.31
2022-10-17T01:48:15.654Z,101440.45
2022-10-17T01:49:21.358Z,101437.94
2022-10-17T01:50:28.035Z,101436.20
2022-10-17T01:51:41.933Z,101439.63
2022-10-17T01:54:04.391Z,101439.61
2022-10-17T01:55:13.919Z,101436.91
2022-10-17T01:56:19.253Z,101440.34
2022-10-17T01:57:28.377Z,101435.21
2022-10-17T01:58:34.138Z,101446.38
2022-10-17T01:59:43.057Z,101444.68
2022-10-17T02:00:47.749Z,101447.26
2022-10-17T02:01:53.151Z,101453.23
2022-10-17T02:03:02.354Z,101451.53
2022-10-17T02:04:07.390Z,101451.56
2022-10-17T02:05:10.133Z,101448.14
2022-10-17T02:06:13.819Z,101449.87
2022-10-17T02:07:16.196Z,101444.71
2022-10-17T02:08:43.378Z,101436.16
2022-10-17T02:09:47.571Z,101440.48
2022-10-17T02:11:05.704Z,101441.36
2022-10-17T02:12:26.409Z,101443.06
2022-10-17T02:15:25.037Z,101426.80
2022-10-17T02:16:55.159Z,101422.45
2022-10-17T02:18:03.584Z,101419.02
2022-10-17T02:19:34.917Z,101416.39
2022-10-17T02:20:43.578Z,101412.91
2022-10-17T02:21:49.169Z,101408.62
2022-10-17T02:23:09.235Z,101412.88
2022-10-17T02:24:17.799Z,101414.58
2022-10-17T02:25:32.696Z,101418.04
2022-10-17T02:26:38.308Z,101412.03
2022-10-17T02:28:00.830Z,101418.86
2022-10-17T02:29:18.943Z,101420.59
2022-10-17T02:30:42.956Z,101428.36
2022-10-17T02:32:06.980Z,101426.63
2022-10-17T02:33:12.570Z,101436.13
2022-10-17T02:34:30.258Z,101428.41
2022-10-17T02:35:35.748Z,101430.11
2022-10-17T02:36:47.324Z,101426.69
2022-10-17T02:37:51.676Z,101424.98
2022-10-17T02:38:54.748Z,101429.29
2022-10-17T02:39:59.220Z,101431.02
2022-10-17T02:41:02.960Z,101431.90
2022-10-17T02:42:09.141Z,101436.22
2022-10-17T02:43:12.636Z,101432.81
2022-10-17T02:44:16.233Z,101438.88
2022-10-17T02:45:19.158Z,101434.58
2022-10-17T02:46:24.186Z,101436.33
2022-10-17T02:47:41.663Z,101432.90
2022-10-17T02:48:47.151Z,101430.28
2022-10-17T02:49:51.917Z,101431.16
2022-10-17T02:51:24.609Z,101434.58
2022-10-17T02:52:42.137Z,101432.84
2022-10-17T02:53:47.791Z,101430.23
2022-10-17T02:54:56.412Z,101426.82
2022-10-17T02:56:02.780Z,101430.28
2022-10-17T02:57:24.411Z,101428.48
2022-10-17T02:58:32.742Z,101427.66
2022-10-17T02:59:37.986Z,101434.52
2022-10-17T03:00:41.331Z,101429.39
2022-10-17T03:01:45.263Z,101431.98
2022-10-17T03:02:52.018Z,101436.30
2022-10-17T03:04:09.782Z,101438.00
2022-10-17T03:05:14.695Z,101431.11
2022-10-17T03:06:17.149Z,101441.39
2022-10-17T03:07:21.009Z,101443.11
2022-10-17T03:08:23.418Z,101443.99
2022-10-17T03:09:25.377Z,101448.32
2022-10-17T03:10:27.351Z,101451.78
2022-10-17T03:11:29.776Z,101454.29
2022-10-17T03:12:31.942Z,101457.69
2022-10-17T03:13:36.336Z,101452.56
2022-10-17T03:14:37.852Z,101455.98
2022-10-17T03:15:40.781Z,101462.03
2022-10-17T03:16:43.207Z,101456.92
2022-10-17T03:18:50.093Z,101460.40
2022-10-17T03:19:51.895Z,101464.70
2022-10-17T03:20:54.096Z,101458.66
2022-10-17T03:21:55.845Z,101470.67
2022-10-17T03:22:58.162Z,101461.16
2022-10-17T03:23:59.868Z,101461.95
2022-10-17T03:25:05.591Z,101464.52
2022-10-17T03:26:11.288Z,101472.16
2022-10-17T03:27:14.049Z,101472.09
2022-10-17T03:28:15.951Z,101472.02
2022-10-17T03:29:17.685Z,101466.81
2022-10-17T03:30:19.946Z,101466.81
2022-10-17T03:31:21.841Z,101473.66
2022-10-17T03:32:24.070Z,101485.62
2022-10-17T03:33:26.178Z,101487.30
2022-10-17T03:34:28.205Z,101483.89
2022-10-17T03:35:30.214Z,101494.20
2022-10-17T03:36:32.655Z,101488.20
2022-10-17T03:37:36.021Z,101477.05
2022-10-17T03:38:39.044Z,101491.62
2022-10-17T03:39:41.218Z,101487.22
2022-10-17T03:40:43.230Z,101488.05
2022-10-17T03:41:44.959Z,101494.00
2022-10-17T03:42:47.619Z,101494.00
2022-10-17T03:43:51.289Z,101505.20
2022-10-17T03:44:54.078Z,101502.51
2022-10-17T03:45:58.989Z,101510.12
2022-10-17T03:47:01.805Z,101504.03
2022-10-17T03:48:04.449Z,101501.38
2022-10-17T03:49:06.366Z,101503.91
2022-10-17T03:50:09.160Z,101511.55
2022-10-17T03:51:11.976Z,101506.40
2022-10-17T03:52:18.750Z,101502.95
2022-10-17T03:53:23.181Z,101500.44
2022-10-17T03:54:26.893Z,101503.92
2022-10-17T03:55:29.491Z,101502.10
2022-10-17T03:56:31.471Z,101508.08
2022-10-17T03:57:40.187Z,101498.57
2022-10-17T03:58:42.964Z,101507.20
2022-10-17T03:59:45.028Z,101502.94
2022-10-17T04:00:48.817Z,101498.69
2022-10-17T04:01:50.837Z,101498.69
2022-10-17T04:02:53.760Z,101495.20
2022-10-17T04:03:56.461Z,101490.90
2022-10-17T04:05:00.610Z,101493.48
2022-10-17T04:06:05.517Z,101498.64
2022-10-17T04:07:08.669Z,101500.42
2022-10-17T04:08:12.638Z,101502.17
2022-10-17T04:10:48.505Z,101493.00
2022-10-17T04:11:50.333Z,101500.56
2022-10-17T04:12:52.384Z,101497.98
2022-10-17T04:13:56.487Z,101506.55
2022-10-17T04:14:58.821Z,101504.85
2022-10-17T04:16:06.639Z,101507.38
2022-10-17T04:17:10.104Z,101502.33
2022-10-17T04:18:12.250Z,101495.56
2022-10-17T04:19:14.095Z,101505.92
2022-10-17T04:20:17.990Z,101500.77
2022-10-17T04:21:20.909Z,101504.26
2022-10-17T04:22:24.418Z,101499.20
2022-10-17T04:23:29.218Z,101502.72
2022-10-17T04:24:33.605Z,101501.97
2022-10-17T04:25:43.533Z,101486.55
2022-10-17T04:26:51.422Z,101486.59
2022-10-17T04:27:54.099Z,101487.45
2022-10-17T04:28:56.509Z,101493.39
2022-10-17T04:29:58.519Z,101490.02
2022-10-17T04:31:06.953Z,101478.94
2022-10-17T04:32:10.570Z,101480.67
2022-10-17T04:33:16.934Z,101480.71
2022-10-17T04:34:18.971Z,101479.83
2022-10-17T04:35:21.544Z,101486.75
2022-10-17T04:36:25.397Z,101477.36
2022-10-17T04:37:28.939Z,101472.23
2022-10-17T04:38:32.349Z,101472.32
2022-10-17T04:39:34.491Z,101480.91
2022-10-17T04:40:36.631Z,101474.90
2022-10-17T04:41:39.425Z,101476.66
2022-10-17T04:42:41.300Z,101472.38
2022-10-17T04:43:46.912Z,101486.98
2022-10-17T04:44:48.193Z,101486.98
2022-10-17T04:45:51.503Z,101494.75
2022-10-17T04:46:53.508Z,101493.89
2022-10-17T04:47:55.945Z,101490.49
2022-10-17T04:48:57.927Z,101499.08
2022-10-17T04:50:00.083Z,101499.98
2022-10-17T04:51:07.395Z,101506.00
2022-10-17T04:52:14.534Z,101503.45
2022-10-17T04:53:21.828Z,101500.81
2022-10-17T04:54:25.159Z,101504.22
2022-10-17T04:55:28.792Z,101496.53
2022-10-17T04:56:32.144Z,101499.94
2022-10-17T04:57:35.235Z,101496.50
2022-10-17T04:58:39.947Z,101489.61
2022-10-17T04:59:44.131Z,101487.83
2022-10-17T05:00:51.225Z,101484.40
2022-10-17T05:01:57.789Z,101489.61
2022-10-17T05:03:00.972Z,101490.48
2022-10-17T05:04:04.127Z,101492.19
2022-10-17T05:05:07.173Z,101485.33
2022-10-17T05:06:13.194Z,101492.98
2022-10-17T05:07:15.452Z,101496.48
2022-10-17T05:08:25.251Z,101491.26
2022-10-17T05:09:28.186Z,101491.23
2022-10-17T05:10:32.326Z,101498.05
2022-10-17T05:11:34.660Z,101495.51
2022-10-17T05:12:36.719Z,101496.36
2022-10-17T05:13:39.941Z,101498.13
2022-10-17T05:14:42.571Z,101505.86
2022-10-17T05:15:44.746Z,101499.88
2022-10-17T05:16:47.756Z,101502.45
2022-10-17T05:17:53.678Z,101499.84
2022-10-17T05:18:57.713Z,101505.83
2022-10-17T05:20:01.668Z,101507.59
2022-10-17T05:21:05.416Z,101506.80
2022-10-17T05:22:08.553Z,101507.67
2022-10-17T05:23:11.921Z,101508.55
2022-10-17T05:24:16.347Z,101508.58
2022-10-17T05:25:20.205Z,101511.16
2022-10-17T05:26:24.238Z,101512.02
2022-10-17T05:27:26.777Z,101518.84
2022-10-17T05:28:29.021Z,101517.06
2022-10-17T05:29:34.547Z,101523.10
2022-10-17T05:30:41.366Z,101518.79
2022-10-17T05:31:43.802Z,101522.25
2022-10-17T05:32:45.929Z,101519.70
2022-10-17T05:33:47.854Z,101527.44
2022-10-17T05:34:49.686Z,101530.90
2022-10-17T05:35:51.707Z,101522.22
2022-10-17T05:36:53.610Z,101525.71
2022-10-17T05:37:57.855Z,101516.96
2022-10-17T05:39:00.115Z,101513.60
2022-10-17T05:40:02.466Z,101520.55
2022-10-17T05:41:06.650Z,101518.03
2022-10-17T05:42:09.456Z,101517.20
2022-10-17T05:43:11.364Z,101508.60
2022-10-17T05:44:13.373Z,101512.02
2022-10-17T05:45:17.329Z,101509.44
2022-10-17T05:46:19.288Z,101512.03
2022-10-17T05:47:22.151Z,101508.63
2022-10-17T05:48:26.507Z,101513.78
2022-10-17T05:49:45.981Z,101513.81
2022-10-17T05:50:33.313Z,101515.53
2022-10-17T05:52:43.905Z,101519.91
2022-10-17T05:53:47.736Z,101524.22
2022-10-17T05:54:52.160Z,101525.95
2022-10-17T05:56:01.354Z,101522.48
2022-10-17T05:57:04.026Z,101522.48
2022-10-17T05:58:06.828Z,101525.97
2022-10-17T05:59:10.472Z,101529.45
2022-10-17T06:00:26.934Z,101520.02
2022-10-17T06:01:30.710Z,101519.14
2022-10-17T06:02:33.567Z,101525.98
2022-10-17T06:03:36.566Z,101521.68
2022-10-17T06:04:40.532Z,101524.23
2022-10-17T06:05:45.393Z,101520.79
2022-10-17T06:06:47.478Z,101517.34
2022-10-17T06:07:49.511Z,101525.95
2022-10-17T06:08:52.664Z,101525.93
2022-10-17T06:09:56.568Z,101529.41
2022-10-17T06:10:59.192Z,101527.69
2022-10-17T06:12:01.264Z,101533.73
2022-10-17T06:13:04.483Z,101525.99
2022-10-17T06:14:07.165Z,101524.31
2022-10-17T06:15:11.068Z,101520.88
2022-10-17T06:16:14.224Z,101519.08
2022-10-17T06:17:17.599Z,101520.80
2022-10-17T06:18:19.929Z,101521.67
2022-10-17T06:19:22.742Z,101517.38
2022-10-17T06:20:24.634Z,101524.23
2022-10-17T06:21:27.938Z,101531.06
2022-10-17T06:22:32.645Z,101525.91
2022-10-17T06:23:36.211Z,101528.55
2022-10-17T06:24:40.182Z,101532.88
2022-10-17T06:25:42.135Z,101532.03
2022-10-17T06:26:43.864Z,101534.67
2022-10-17T06:27:47.750Z,101541.59
2022-10-17T06:28:55.109Z,101529.52
2022-10-17T06:29:58.478Z,101538.97
2022-10-17T06:31:06.230Z,101550.17
2022-10-17T06:32:11.240Z,101551.83
2022-10-17T06:33:12.716Z,101557.87
2022-10-17T06:34:14.906Z,101560.52
2022-10-17T06:35:16.971Z,101552.78
2022-10-17T06:36:18.746Z,101552.80
2022-10-17T06:37:21.226Z,101549.36
2022-10-17T06:38:24.030Z,101548.48
2022-10-17T06:39:27.805Z,101541.59
2022-10-17T06:40:32.517Z,101546.71
2022-10-17T06:41:35.891Z,101544.91
2022-10-17T06:42:41.159Z,101544.93
2022-10-17T06:43:46.317Z,101548.42
2022-10-17T06:45:09.030Z,101553.62
2022-10-17T06:46:21.425Z,101558.84
2022-10-17T06:47:28.640Z,101564.02
2022-10-17T06:48:33.063Z,101556.27
2022-10-17T06:51:02.110Z,101544.19
2022-10-17T06:52:04.724Z,101550.21
2022-10-17T06:53:08.969Z,101551.08
2022-10-17T06:54:19.960Z,101539.88
2022-10-17T06:55:25.167Z,101532.95
2022-10-17T06:57:58.757Z,101532.91
2022-10-17T06:59:05.731Z,101533.80
2022-10-17T07:00:11.774Z,101544.13
2022-10-17T07:01:16.664Z,101553.62
2022-10-17T07:02:24.590Z,101535.45
2022-10-17T07:03:32.792Z,101544.08
2022-10-17T07:04:35.756Z,101542.36
2022-10-17T07:05:39.819Z,101534.63
2022-10-17T07:06:41.887Z,101547.58
2022-10-17T07:07:47.457Z,101549.30
2022-10-17T07:08:50.961Z,101539.81
2022-10-17T07:09:56.960Z,101538.95
2022-10-17T07:11:09.967Z,101544.98
2022-10-17T07:12:13.039Z,101543.24
2022-10-17T07:13:17.836Z,101541.45
2022-10-17T07:14:20.567Z,101536.16
2022-10-17T07:15:22.966Z,101538.77
2022-10-17T07:16:25.044Z,101536.27
2022-10-17T07:17:29.663Z,101538.02
2022-10-17T07:18:31.830Z,101552.70
2022-10-17T07:19:36.467Z,101544.09
2022-10-17T07:20:42.125Z,101538.04
2022-10-17T07:21:44.512Z,101546.69
2022-10-17T07:22:48.847Z,101546.69
2022-10-17T07:23:52.328Z,101544.99
2022-10-17T07:24:55.152Z,101545.84
2022-10-17T07:26:05.462Z,101556.16
2022-10-17T07:27:07.491Z,101551.00
2022-10-17T07:28:10.936Z,101550.98
2022-10-17T07:29:15.234Z,101551.86
2022-10-17T07:30:28.081Z,101560.47
2022-10-17T07:31:38.613Z,101556.11
2022-10-17T07:32:42.220Z,101553.50
2022-10-17T07:34:49.659Z,101560.41
2022-10-17T07:35:51.498Z,101567.28
2022-10-17T07:36:55.019Z,101568.16
2022-10-17T07:37:57.143Z,101562.92
2022-10-17T07:39:01.130Z,101563.80
2022-10-17T07:40:06.589Z,101562.92
2022-10-17T07:41:11.401Z,101554.29
2022-10-17T07:42:13.493Z,101557.68
2022-10-17T07:43:16.011Z,101560.23
2022-10-17T07:44:20.103Z,101553.33
2022-10-17T07:45:24.037Z,101548.11
2022-10-17T07:46:27.296Z,101548.11
2022-10-17T07:47:32.374Z,101552.39
2022-10-17T07:48:35.446Z,101544.61
2022-10-17T07:49:37.459Z,101535.95
2022-10-17T07:50:39.513Z,101542.83
2022-10-17T07:51:41.730Z,101542.80
2022-10-17T07:52:44.680Z,101547.09
2022-10-17T07:53:48.977Z,101554.03
2022-10-17T07:54:50.990Z,101543.64
2022-10-17T07:55:53.422Z,101547.07
2022-10-17T07:56:55.835Z,101541.87
2022-10-17T07:57:58.710Z,101547.89
2022-10-17T07:59:02.745Z,101546.16
2022-10-17T08:00:06.290Z,101535.83
2022-10-17T08:01:14.735Z,101537.52
2022-10-17T08:02:26.753Z,101546.11
2022-10-17T08:03:30.244Z,101535.69
2022-10-17T08:04:33.683Z,101530.50
2022-10-17T08:05:36.023Z,101538.25
2022-10-17T08:06:39.088Z,101536.49
2022-10-17T08:07:41.547Z,101539.88
2022-10-17T08:08:43.916Z,101537.33
2022-10-17T08:09:47.241Z,101542.45
2022-10-17T08:10:50.340Z,101539.80
2022-10-17T08:11:52.169Z,101538.91
2022-10-17T08:12:56.499Z,101544.05
2022-10-17T08:13:58.352Z,101537.93
2022-10-17T08:15:01.699Z,101526.70
2022-10-17T08:16:06.642Z,101529.27
2022-10-17T08:17:09.546Z,101517.14
2022-10-17T08:18:11.956Z,101534.41
2022-10-17T08:19:13.794Z,101523.11
2022-10-17T08:20:17.362Z,101529.97
2022-10-17T08:21:19.294Z,101527.34
2022-10-17T08:22:21.203Z,101534.17
2022-10-17T08:23:22.964Z,101522.89
2022-10-17T08:24:26.147Z,101522.89
2022-10-17T08:25:28.299Z,101519.42
2022-10-17T08:26:30.680Z,101515.95
2022-10-17T08:27:34.865Z,101511.55
2022-10-17T08:28:39.794Z,101508.80
2022-10-17T08:29:42.371Z,101510.52
2022-10-17T08:30:44.458Z,101508.75
2022-10-17T08:31:47.881Z,101508.75
2022-10-17T08:32:50.095Z,101518.98
2022-10-17T08:33:52.363Z,101509.47
2022-10-17T08:34:56.215Z,101514.61
2022-10-17T08:36:00.958Z,101511.02
2022-10-17T08:37:04.115Z,101505.77
2022-10-17T08:38:06.125Z,101507.63
2022-10-17T08:39:08.435Z,101507.77
2022-10-17T08:40:14.573Z,101507.69
2022-10-17T08:41:52.009Z,101508.36
2022-10-17T08:42:57.605Z,101509.23
2022-10-17T08:44:25.862Z,101507.31
2022-10-17T08:45:37.457Z,101514.38
2022-10-17T08:46:43.499Z,101503.02
2022-10-17T08:47:48.939Z,101500.47
2022-10-17T08:48:51.719Z,101493.43
2022-10-17T08:50:00.288Z,101502.20
2022-10-17T08:51:21.133Z,101490.80
2022-10-17T08:52:53.068Z,101488.30
2022-10-17T08:54:14.451Z,101489.08
2022-10-17T08:55:29.275Z,101492.43
2022-10-17T08:56:48.917Z,101490.58
2022-10-17T08:57:48.885Z,101485.53
2022-10-17T08:58:52.735Z,101504.45
2022-10-17T08:59:55.041Z,101498.31
2022-10-17T09:01:08.001Z,101500.01
2022-10-17T09:02:35.653Z,101504.27
2022-10-17T09:03:53.538Z,101497.14
2022-10-17T09:05:14.424Z,101483.17
2022-10-17T09:06:24.683Z,101488.45
2022-10-17T09:07:32.663Z,101496.16
2022-10-17T09:08:47.890Z,101493.58
2022-10-17T09:09:53.568Z,101494.47
2022-10-17T09:11:08.410Z,101499.48
2022-10-17T09:12:21.272Z,101494.28
2022-10-17T09:13:38.669Z,101496.08
2022-10-17T09:15:11.502Z,101493.48
2022-10-17T09:18:04.895Z,101503.63
2022-10-17T09:19:16.614Z,101495.16
2022-10-17T09:20:34.508Z,101491.39
2022-10-17T09:21:40.576Z,101492.27
2022-10-17T09:22:46.175Z,101494.98
2022-10-17T09:24:08.776Z,101500.88
2022-10-17T09:25:05.170Z,101496.28
2022-10-17T09:26:13.921Z,101495.56
2022-10-17T09:27:25.075Z,101486.03
2022-10-17T09:28:36.679Z,101489.55
2022-10-17T09:29:43.714Z,101498.78
2022-10-17T09:31:03.007Z,101509.07
2022-10-17T09:32:14.416Z,101508.07
2022-10-17T09:33:34.671Z,101501.02
2022-10-17T09:34:28.601Z,101506.14
2022-10-17T09:35:32.478Z,101508.98
2022-10-17T09:36:39.399Z,101511.40
2022-10-17T09:37:42.095Z,101501.69
2022-10-17T09:38:56.409Z,101502.36
2022-10-17T09:39:59.356Z,101502.19
2022-10-17T09:41:15.760Z,101500.52
2022-10-17T09:42:14.545Z,101497.99
2022-10-17T09:43:16.601Z,101502.36
2022-10-17T09:44:24.086Z,101500.84
2022-10-17T09:45:29.227Z,101490.22
2022-10-17T09:46:39.663Z,101498.88
2022-10-17T09:48:01.743Z,101491.02
2022-10-17T09:49:13.467Z,101500.47
2022-10-17T09:50:19.346Z,101494.37
2022-10-17T09:51:26.210Z,101493.36
2022-10-17T09:52:43.580Z,101489.64
2022-10-17T09:53:51.938Z,101486.16
2022-10-17T09:54:57.501Z,101487.92
2022-10-17T09:56:07.717Z,101494.86
2022-10-17T09:57:14.032Z,101493.00
2022-10-17T09:58:16.156Z,101486.02
2022-10-17T09:59:21.895Z,101486.98
2022-10-17T10:00:30.273Z,101484.24
2022-10-17T10:01:33.794Z,101494.58
2022-10-17T10:02:37.381Z,101486.57
2022-10-17T10:03:40.129Z,101489.91
2022-10-17T10:05:09.559Z,101472.45
2022-10-17T10:06:19.820Z,101472.45
2022-10-17T10:07:28.254Z,101476.69
2022-10-17T10:08:30.235Z,101481.07
2022-10-17T10:09:36.869Z,101476.59
2022-10-17T10:10:39.555Z,101483.53
2022-10-17T10:11:54.024Z,101481.73
2022-10-17T10:13:09.412Z,101481.48
2022-10-17T10:14:14.534Z,101481.43
2022-10-17T10:15:36.434Z,101476.12
2022-10-17T10:16:43.212Z,101474.34
2022-10-17T10:17:47.009Z,101477.84
2022-10-17T10:18:51.402Z,101474.13
2022-10-17T10:19:55.811Z,101471.47
2022-10-17T10:21:16.575Z,101459.94
2022-10-17T10:22:20.724Z,101465.41
2022-10-17T10:23:22.572Z,101470.53
2022-10-17T10:24:30.346Z,101461.97
2022-10-17T10:25:28.913Z,101458.47
2022-10-17T10:26:44.806Z,101468.66
2022-10-17T10:27:47.439Z,101463.44
2022-10-17T10:28:57.145Z,101461.43
2022-10-17T10:29:59.440Z,101460.05
2022-10-17T10:31:07.459Z,101456.03
2022-10-17T10:32:25.454Z,101456.86
2022-10-17T10:33:29.415Z,101448.84
2022-10-17T10:34:32.861Z,101453.80
2022-10-17T10:35:37.729Z,101455.52
2022-10-17T10:36:46.785Z,101457.84
2022-10-17T10:37:55.475Z,101474.19
2022-10-17T10:39:02.525Z,101470.36
2022-10-17T10:40:07.838Z,101464.42
2022-10-17T10:41:12.192Z,101475.64
2022-10-17T10:42:30.063Z,101487.06
2022-10-17T10:43:39.014Z,101480.11
2022-10-17T10:44:40.945Z,101482.09
2022-10-17T10:45:48.085Z,101478.64
2022-10-17T10:46:47.797Z,101479.72
2022-10-17T10:47:55.941Z,101473.59
2022-10-17T10:48:59.990Z,101467.95
2022-10-17T10:50:18.912Z,101471.88
2022-10-17T10:51:30.611Z,101470.05
2022-10-17T10:52:45.240Z,101467.11
2022-10-17T10:54:01.218Z,101465.98
2022-10-17T10:55:07.261Z,101459.83
2022-10-17T10:56:22.286Z,101460.83
2022-10-17T10:57:28.108Z,101466.95
2022-10-17T10:58:42.139Z,101465.77
2022-10-17T10:59:54.133Z,101465.56
2022-10-17T11:00:59.747Z,101473.03
2022-10-17T11:02:20.570Z,101470.28
2022-10-17T11:04:49.520Z,101472.97
2022-10-17T11:05:55.587Z,101473.08
2022-10-17T11:07:16.411Z,101476.41
2022-10-17T11:08:25.060Z,101469.83
2022-10-17T11:10:00.346Z,101466.03
2022-10-17T11:11:10.019Z,101456.05
2022-10-17T11:12:18.484Z,101464.23
2022-10-17T11:13:29.974Z,101449.38
2022-10-17T11:14:42.860Z,101438.84
2022-10-17T11:15:49.459Z,101440.25
2022-10-17T11:17:04.321Z,101441.09
2022-10-17T11:18:09.742Z,101436.06
2022-10-17T11:20:46.586Z,101442.16
2022-10-17T11:22:02.251Z,101435.45
2022-10-17T11:23:27.827Z,101453.44
2022-10-17T11:24:42.198Z,101433.49
2022-10-17T11:25:45.418Z,101429.41
2022-10-17T11:26:59.674Z,101430.28
2022-10-17T11:28:06.003Z,101436.08
2022-10-17T11:29:12.047Z,101430.65
2022-10-17T11:30:15.618Z,101417.22
2022-10-17T11:31:21.085Z,101418.62
2022-10-17T11:34:01.280Z,101403.73
2022-10-17T11:35:24.177Z,101403.03
2022-10-17T11:36:32.785Z,101403.03
2022-10-17T11:37:40.742Z,101401.92
2022-10-17T11:38:47.266Z,101409.23
2022-10-17T11:39:52.904Z,101400.81
2022-10-17T11:40:59.321Z,101398.56
2022-10-17T11:42:07.742Z,101403.06
2022-10-17T11:43:30.129Z,101403.58
2022-10-17T11:44:42.438Z,101410.86
2022-10-17T11:45:47.969Z,101403.48
2022-10-17T11:46:53.610Z,101402.64
2022-10-17T11:48:02.161Z,101406.37
2022-10-17T11:49:20.396Z,101408.52
2022-10-17T11:52:56.458Z,101390.95
2022-10-17T11:54:15.384Z,101393.57
2022-10-17T11:55:23.209Z,101383.17
2022-10-17T11:56:43.900Z,101393.78
2022-10-17T11:57:55.156Z,101378.67
2022-10-17T11:59:07.339Z,101381.78
2022-10-17T12:00:40.543Z,101379.09
2022-10-17T12:01:48.595Z,101381.68
2022-10-17T12:03:07.352Z,101375.50
2022-10-17T12:04:15.695Z,101375.31
2022-10-17T12:05:26.946Z,101382.14
2022-10-17T12:06:47.950Z,101373.64
2022-10-17T12:08:05.313Z,101375.39
2022-10-17T12:09:20.819Z,101376.09
2022-10-17T12:10:26.381Z,101384.86
2022-10-17T12:11:35.989Z,101375.39
2022-10-17T12:12:37.850Z,101376.72
2022-10-17T12:13:48.789Z,101365.99
2022-10-17T12:14:51.314Z,101365.99
2022-10-17T12:15:59.162Z,101373.25
2022-10-17T12:17:02.427Z,101377.52
2022-10-17T12:18:05.520Z,101384.03
2022-10-17T12:19:13.862Z,101391.19
2022-10-17T12:20:25.330Z,101395.74
2022-10-17T12:21:31.318Z,101397.34
2022-10-17T12:22:33.503Z,101392.20
2022-10-17T12:23:36.434Z,101389.91
2022-10-17T12:24:41.893Z,101385.00
2022-10-17T12:26:04.648Z,101387.84
2022-10-17T12:27:38.131Z,101387.59
2022-10-17T12:28:47.649Z,101378.48
2022-10-17T12:29:50.172Z,101370.41
2022-10-17T12:30:59.012Z,101370.42
2022-10-17T12:32:12.186Z,101370.69
2022-10-17T12:33:20.612Z,101371.94
2022-10-17T12:34:23.859Z,101372.78
2022-10-17T12:35:27.871Z,101368.78
2022-10-17T12:36:33.690Z,101370.22
2022-10-17T12:37:58.618Z,101363.61
2022-10-17T12:39:06.619Z,101373.95
2022-10-17T12:40:42.203Z,101357.89
2022-10-17T12:41:48.141Z,101369.88
2022-10-17T12:42:51.829Z,101363.07
2022-10-17T12:43:54.461Z,101368.86
2022-10-17T12:45:00.852Z,101358.39
2022-10-17T12:46:06.364Z,101368.22
2022-10-17T12:47:31.159Z,101367.27
2022-10-17T12:48:37.378Z,101368.27
2022-10-17T12:49:43.616Z,101363.29
2022-10-17T12:52:27.010Z,101368.87
2022-10-17T12:53:44.580Z,101362.91
2022-10-17T12:57:09.485Z,101365.33
2022-10-17T12:58:16.084Z,101363.62
2022-10-17T12:59:29.560Z,101364.75
2022-10-17T13:01:18.941Z,101358.91
2022-10-17T13:03:15.440Z,101356.05
2022-10-17T13:04:18.788Z,101355.13
2022-10-17T13:06:41.538Z,101362.95
2022-10-17T13:07:47.717Z,101359.91
2022-10-17T13:09:04.479Z,101365.07
2022-10-17T13:10:20.053Z,101357.06
2022-10-17T13:11:25.547Z,101350.59
2022-10-17T13:12:28.049Z,101345.52
2022-10-17T13:13:51.869Z,101348.46